SLSB/SRJ METAR and TAF weather

Enter ICAO airport designator
Station Type Date Time Source
SLSB METAR 2019/10/18 11:00 UTC NOAA

SLSB 181100Z 00000KT 6000 FEW020CB BKN080 23/22 Q1012


Station Type Date Time Source
SLSB Decoded METAR 2019/10/18 11:00 UTC NOAA

San Borja, Bolivia (SLSB) 14-52S 066-52W
Oct 18, 2019 - 07:00 AM EDT / 2019.10.18 1100 UTC
Wind: Calm:0
Visibility: 3 mile(s):0
Sky conditions: mostly cloudy
Weather: Cumulonimbus clouds observed
Temperature: 73 F (23 C)
Dew Point: 71 F (22 C)
Relative Humidity: 94%
Pressure (altimeter): 29.88 in. Hg (1012 hPa)
ob: SLSB 181100Z 00000KT 6000 FEW020CB BKN080 23/22 Q1012
cycle: 11

Station Type Date Time Source
SLSB TAF UTC NOAA

Error!

Example: see airport list